Time;durP1;ratioP1;P1;durP2;ratioP2;P2;SDS_P1;SDS_P2;PMS_P1;PMS_P2;Temp;Humidity;BMP_temperature;BMP_pressure;BME280_temperature;BME280_humidity;BME280_pressure;Samples;Min_cycle;Max_cycle;Signal;HPM_P1;HPM_P2
2021/05/23 00:00:10;;;;;;;1.30;1.02;;;;;;;;;;1651658;85;21049;-61
2021/05/23 00:02:36;;;;;;;1.67;1.02;;;;;;;;;;1651610;85;21021;-61
2021/05/23 00:05:04;;;;;;;3.05;1.45;;;;;;;;;;1651625;85;21034;-61
2021/05/23 00:07:31;;;;;;;1.50;1.00;;;;;;;;;;1650518;86;21602;-61
2021/05/23 00:09:58;;;;;;;4.90;1.15;;;;;;;;;;1651502;86;21175;-61
2021/05/23 00:12:25;;;;;;;2.33;1.30;;;;;;;;;;1651496;85;20960;-61
2021/05/23 00:14:51;;;;;;;1.10;1.00;;;;;;;;;;1651614;85;21016;-61
2021/05/23 00:17:19;;;;;;;4.92;1.30;;;;;;;;;;1650531;86;21518;-60
2021/05/23 00:19:46;;;;;;;1.65;1.55;;;;;;;;;;1651359;85;21005;-61
2021/05/23 00:22:12;;;;;;;0.93;0.88;;;;;;;;;;1651568;85;21170;-61
2021/05/23 00:24:38;;;;;;;1.72;1.10;;;;;;;;;;1651626;85;20929;-61
2021/05/23 00:27:05;;;;;;;2.92;1.15;;;;;;;;;;1634569;86;21681;-61
2021/05/23 00:29:32;;;;;;;1.12;1.02;;;;;;;;;;1648823;85;21496;-61
2021/05/23 00:31:59;;;;;;;2.50;1.32;;;;;;;;;;1651691;85;20894;-60
2021/05/23 00:34:25;;;;;;;1.17;1.07;;;;;;;;;;1654744;85;21147;-60
2021/05/23 00:36:54;;;;;;;2.55;1.20;;;;;;;;;;1658495;85;20893;-61
2021/05/23 00:39:20;;;;;;;2.45;1.00;;;;;;;;;;1656687;85;20961;-61
2021/05/23 00:41:46;;;;;;;2.42;1.32;;;;;;;;;;1658553;85;21000;-60
2021/05/23 00:44:13;;;;;;;1.30;1.20;;;;;;;;;;1654263;85;21180;-60
2021/05/23 00:46:39;;;;;;;2.27;1.15;;;;;;;;;;1652396;85;21247;-60
2021/05/23 00:49:06;;;;;;;2.17;1.15;;;;;;;;;;1656035;86;21059;-60
2021/05/23 00:51:32;;;;;;;1.45;1.35;;;;;;;;;;1658601;86;20933;-60
2021/05/23 00:53:58;;;;;;;1.42;1.25;;;;;;;;;;1658430;85;20996;-61
2021/05/23 00:56:25;;;;;;;1.50;1.32;;;;;;;;;;1658513;85;21569;-61
2021/05/23 00:58:51;;;;;;;1.90;1.70;;;;;;;;;;1656660;85;21014;-61
2021/05/23 01:01:45;;;;;;;1.95;1.20;;;;;;;;;;1658289;86;21059;-61
2021/05/23 01:04:11;;;;;;;1.40;1.30;;;;;;;;;;1658624;86;20985;-60
2021/05/23 01:06:37;;;;;;;3.30;1.22;;;;;;;;;;1658624;86;21065;-61
2021/05/23 01:09:08;;;;;;;1.40;1.25;;;;;;;;;;1648692;86;21099;-60
2021/05/23 01:11:41;;;;;;;1.47;1.20;;;;;;;;;;1658630;85;21101;-60
2021/05/23 01:14:43;;;;;;;2.02;1.47;;;;;;;;;;1658483;85;21048;-61
2021/05/23 01:17:11;;;;;;;2.05;1.42;;;;;;;;;;1658428;85;21068;-60
2021/05/23 01:20:04;;;;;;;3.60;1.20;;;;;;;;;;1656699;86;21024;-60
2021/05/23 01:22:37;;;;;;;1.67;1.27;;;;;;;;;;1658636;85;21052;-60
2021/05/23 01:25:10;;;;;;;2.75;1.10;;;;;;;;;;1658521;86;21675;-60
2021/05/23 01:27:38;;;;;;;2.45;1.40;;;;;;;;;;1656263;86;21080;-60
2021/05/23 01:30:08;;;;;;;2.65;1.20;;;;;;;;;;1658576;85;20989;-61
2021/05/23 01:32:37;;;;;;;2.83;1.40;;;;;;;;;;1657805;85;21614;-60
2021/05/23 01:35:09;;;;;;;1.92;1.07;;;;;;;;;;1658423;86;21052;-60
2021/05/23 01:37:36;;;;;;;2.98;1.15;;;;;;;;;;1629653;85;21157;-60
2021/05/23 01:40:04;;;;;;;1.37;1.12;;;;;;;;;;1639913;85;21490;-60
2021/05/23 01:42:30;;;;;;;1.52;1.40;;;;;;;;;;1658469;86;20928;-59
2021/05/23 01:44:56;;;;;;;1.95;1.10;;;;;;;;;;1658469;86;21040;-60
2021/05/23 01:47:23;;;;;;;1.30;1.10;;;;;;;;;;1658350;85;20961;-60
2021/05/23 01:49:49;;;;;;;1.65;1.20;;;;;;;;;;1657613;85;22054;-59
2021/05/23 01:52:15;;;;;;;0.98;0.98;;;;;;;;;;1658229;85;21056;-59
2021/05/23 01:54:42;;;;;;;1.40;1.30;;;;;;;;;;1658560;86;21017;-60
2021/05/23 01:57:08;;;;;;;1.52;1.20;;;;;;;;;;1658439;85;20944;-59
2021/05/23 01:59:34;;;;;;;2.92;1.10;;;;;;;;;;1643414;86;21000;-60
2021/05/23 02:02:00;;;;;;;1.55;1.30;;;;;;;;;;1658476;85;21093;-60
2021/05/23 02:04:26;;;;;;;1.67;1.45;;;;;;;;;;1658710;85;21649;-59
2021/05/23 02:06:53;;;;;;;2.12;1.30;;;;;;;;;;1650107;86;20941;-60
2021/05/23 02:09:20;;;;;;;2.15;1.57;;;;;;;;;;1644146;85;21613;-60
2021/05/23 02:11:48;;;;;;;2.02;1.37;;;;;;;;;;1631604;86;21625;-60
2021/05/23 02:14:14;;;;;;;1.65;1.50;;;;;;;;;;1638251;85;21638;-61
2021/05/23 02:16:40;;;;;;;2.90;1.40;;;;;;;;;;1637112;85;21025;-60
2021/05/23 02:19:07;;;;;;;2.33;1.30;;;;;;;;;;1646946;85;21028;-60
2021/05/23 02:21:34;;;;;;;1.35;1.25;;;;;;;;;;1646088;85;21048;-60
2021/05/23 02:24:00;;;;;;;2.52;2.02;;;;;;;;;;1642011;85;21025;-60
2021/05/23 02:26:26;;;;;;;1.60;1.50;;;;;;;;;;1645572;85;21152;-60
2021/05/23 02:28:52;;;;;;;2.55;1.70;;;;;;;;;;1646482;85;20993;-60
2021/05/23 02:31:19;;;;;;;1.75;1.62;;;;;;;;;;1637164;85;20961;-60
2021/05/23 02:33:45;;;;;;;1.95;1.85;;;;;;;;;;1638003;85;20988;-60
2021/05/23 02:36:11;;;;;;;3.02;1.60;;;;;;;;;;1641842;85;21036;-60
2021/05/23 02:38:38;;;;;;;2.05;1.70;;;;;;;;;;1649465;85;21168;-61
2021/05/23 02:41:04;;;;;;;1.95;1.50;;;;;;;;;;1645267;85;21040;-60
2021/05/23 02:43:31;;;;;;;1.82;1.65;;;;;;;;;;1642806;85;21090;-60
2021/05/23 02:46:03;;;;;;;2.42;1.87;;;;;;;;;;1661103;85;20937;-60
2021/05/23 02:48:27;;;;;;;1.90;1.60;;;;;;;;;;1658915;85;21012;-61
2021/05/23 02:50:54;;;;;;;1.92;1.72;;;;;;;;;;1661257;85;21238;-61
2021/05/23 02:53:20;;;;;;;1.67;1.45;;;;;;;;;;1661207;86;20929;-61
2021/05/23 02:55:48;;;;;;;1.72;1.57;;;;;;;;;;1661266;86;20997;-61
2021/05/23 02:58:14;;;;;;;4.20;1.77;;;;;;;;;;1659186;85;21527;-61
2021/05/23 03:00:41;;;;;;;5.33;1.70;;;;;;;;;;1661403;85;21502;-62
2021/05/23 03:03:08;;;;;;;1.82;1.50;;;;;;;;;;1661277;85;21648;-61
2021/05/23 03:05:34;;;;;;;1.55;1.30;;;;;;;;;;1661117;86;21048;-61
2021/05/23 03:08:00;;;;;;;1.50;1.40;;;;;;;;;;1660177;86;21609;-61
2021/05/23 03:10:33;;;;;;;1.60;1.27;;;;;;;;;;1660519;86;21040;-61
2021/05/23 03:13:00;;;;;;;1.87;1.52;;;;;;;;;;1661274;86;20988;-61
2021/05/23 03:15:28;;;;;;;5.45;1.52;;;;;;;;;;1661139;86;21079;-60
2021/05/23 03:17:56;;;;;;;1.87;1.40;;;;;;;;;;1658858;86;21605;-61
2021/05/23 03:20:23;;;;;;;3.30;1.70;;;;;;;;;;1661272;86;20952;-62
2021/05/23 03:22:53;;;;;;;2.25;1.45;;;;;;;;;;1660987;85;21043;-61
2021/05/23 03:25:19;;;;;;;2.47;1.47;;;;;;;;;;1661165;86;20988;-61
2021/05/23 03:27:45;;;;;;;2.22;1.37;;;;;;;;;;1659125;85;21667;-61
2021/05/23 03:30:14;;;;;;;1.85;1.40;;;;;;;;;;1660928;86;21036;-61
2021/05/23 03:32:41;;;;;;;2.92;1.52;;;;;;;;;;1661220;85;20972;-61
2021/05/23 03:35:09;;;;;;;1.95;1.52;;;;;;;;;;1660193;86;21044;-61
2021/05/23 03:37:36;;;;;;;4.58;1.55;;;;;;;;;;1658422;85;21036;-61
2021/05/23 03:40:05;;;;;;;2.55;1.25;;;;;;;;;;1643410;85;21118;-61
2021/05/23 03:42:31;;;;;;;2.50;1.82;;;;;;;;;;1658518;86;20988;-61
2021/05/23 03:44:58;;;;;;;1.80;1.55;;;;;;;;;;1657948;86;20988;-61
2021/05/23 03:47:25;;;;;;;2.42;1.72;;;;;;;;;;1658566;85;21029;-61
2021/05/23 03:49:51;;;;;;;1.98;1.55;;;;;;;;;;1656451;85;21538;-61
2021/05/23 03:52:20;;;;;;;1.95;1.20;;;;;;;;;;1658507;85;21647;-61
2021/05/23 03:54:47;;;;;;;1.98;1.40;;;;;;;;;;1641104;85;21016;-61
2021/05/23 03:57:14;;;;;;;2.92;1.47;;;;;;;;;;1656567;85;21008;-61
2021/05/23 03:59:40;;;;;;;1.62;1.50;;;;;;;;;;1655955;85;21021;-61
2021/05/23 04:02:06;;;;;;;1.80;1.50;;;;;;;;;;1658548;86;21684;-61
2021/05/23 04:04:46;;;;;;;1.77;1.67;;;;;;;;;;1658516;86;21195;-62
2021/05/23 04:07:04;;;;;;;2.05;1.52;;;;;;;;;;1656735;85;21047;-61
2021/05/23 04:09:30;;;;;;;2.35;2.15;;;;;;;;;;1656587;85;21523;-61
2021/05/23 04:11:57;;;;;;;3.02;1.60;;;;;;;;;;1658484;85;20968;-61
2021/05/23 04:14:23;;;;;;;1.60;1.50;;;;;;;;;;1658717;85;21408;-61
2021/05/23 04:16:49;;;;;;;2.37;1.60;;;;;;;;;;1658075;85;21488;-61
2021/05/23 04:19:16;;;;;;;1.60;1.40;;;;;;;;;;1651322;85;21084;-61
2021/05/23 04:21:42;;;;;;;2.72;1.70;;;;;;;;;;1658673;85;20945;-61
2021/05/23 04:24:09;;;;;;;3.33;1.67;;;;;;;;;;1658438;85;21025;-61
2021/05/23 04:26:36;;;;;;;1.77;1.65;;;;;;;;;;1658282;85;21076;-61
2021/05/23 04:29:03;;;;;;;2.17;1.90;;;;;;;;;;1656667;85;21128;-61
2021/05/23 04:31:29;;;;;;;3.92;1.65;;;;;;;;;;1658039;85;21033;-61
2021/05/23 04:33:55;;;;;;;3.02;1.67;;;;;;;;;;1658610;86;21562;-61
2021/05/23 04:36:21;;;;;;;3.05;1.92;;;;;;;;;;1658351;85;21668;-60
2021/05/23 04:38:49;;;;;;;4.33;1.90;;;;;;;;;;1656638;86;21016;-60
2021/05/23 04:41:15;;;;;;;2.15;1.62;;;;;;;;;;1658590;85;21066;-62
2021/05/23 04:43:41;;;;;;;2.60;1.82;;;;;;;;;;1658428;85;21684;-62
2021/05/23 04:46:08;;;;;;;3.12;2.25;;;;;;;;;;1650368;86;21038;-63
2021/05/23 04:48:34;;;;;;;2.17;1.80;;;;;;;;;;1697343;84;21495;-62
2021/05/23 04:51:00;;;;;;;3.62;2.10;;;;;;;;;;1641564;85;21136;-65
2021/05/23 04:53:27;;;;;;;2.65;2.30;;;;;;;;;;1673843;84;21589;-63
2021/05/23 04:55:53;;;;;;;1.90;1.67;;;;;;;;;;1671635;84;21042;-61
2021/05/23 04:58:19;;;;;;;2.08;1.85;;;;;;;;;;1687349;83;20973;-61
2021/05/23 05:00:46;;;;;;;3.20;2.08;;;;;;;;;;1686609;83;21043;-65
2021/05/23 05:03:12;;;;;;;2.10;1.90;;;;;;;;;;1684090;83;21088;-61
2021/05/23 05:05:38;;;;;;;2.42;2.22;;;;;;;;;;1686468;83;21106;-60
2021/05/23 05:08:05;;;;;;;2.80;1.80;;;;;;;;;;1686972;83;21087;-61
2021/05/23 05:10:31;;;;;;;2.87;2.00;;;;;;;;;;1685438;83;21036;-64
2021/05/23 05:12:57;;;;;;;2.98;2.15;;;;;;;;;;1685707;83;21126;-62
2021/05/23 05:15:25;;;;;;;2.58;1.80;;;;;;;;;;1687091;83;21622;-62
2021/05/23 05:17:54;;;;;;;4.67;4.15;;;;;;;;;;1688325;83;21615;-62
2021/05/23 05:20:20;;;;;;;3.47;2.58;;;;;;;;;;1690870;83;21651;-63
2021/05/23 05:22:46;;;;;;;2.90;2.27;;;;;;;;;;1686528;83;20970;-53
2021/05/23 05:25:13;;;;;;;2.42;1.85;;;;;;;;;;1687895;83;21143;-57
2021/05/23 05:27:39;;;;;;;1.77;1.67;;;;;;;;;;1683871;83;21032;-56
2021/05/23 05:30:06;;;;;;;8.30;2.00;;;;;;;;;;1688132;83;21700;-64
2021/05/23 05:32:34;;;;;;;2.00;1.80;;;;;;;;;;1670382;83;21981;-64
2021/05/23 05:35:00;;;;;;;2.77;1.90;;;;;;;;;;1670879;83;20899;-64
2021/05/23 05:37:27;;;;;;;2.15;1.62;;;;;;;;;;1695123;82;21011;-69
2021/05/23 05:39:53;;;;;;;1.87;1.67;;;;;;;;;;1682595;82;21007;-62
2021/05/23 05:42:20;;;;;;;2.33;1.87;;;;;;;;;;1683685;82;21260;-64
2021/05/23 05:44:46;;;;;;;2.05;1.47;;;;;;;;;;1699363;84;21026;-66
2021/05/23 05:47:13;;;;;;;2.00;1.75;;;;;;;;;;1692268;82;21498;-54
2021/05/23 05:49:39;;;;;;;2.65;1.67;;;;;;;;;;1687949;82;21023;-65
2021/05/23 05:52:10;;;;;;;3.45;1.90;;;;;;;;;;1701460;82;21012;-56
2021/05/23 05:54:35;;;;;;;2.98;1.50;;;;;;;;;;1703280;82;21391;-57
2021/05/23 05:57:01;;;;;;;1.60;1.32;;;;;;;;;;1673474;82;20982;-63
2021/05/23 05:59:27;;;;;;;5.22;1.67;;;;;;;;;;1697953;82;20984;-58
2021/05/23 06:01:54;;;;;;;2.40;1.80;;;;;;;;;;1702544;82;21027;-59
2021/05/23 06:04:20;;;;;;;2.27;1.50;;;;;;;;;;1699182;82;21624;-65
2021/05/23 06:06:46;;;;;;;2.42;1.32;;;;;;;;;;1695921;84;21020;-66
2021/05/23 06:09:12;;;;;;;2.72;1.70;;;;;;;;;;1692399;83;21558;-67
2021/05/23 06:11:39;;;;;;;1.65;1.47;;;;;;;;;;1695120;84;21012;-66
2021/05/23 06:14:05;;;;;;;3.70;1.77;;;;;;;;;;1701462;83;21609;-68
2021/05/23 06:16:31;;;;;;;2.58;1.45;;;;;;;;;;1694392;83;21034;-59
2021/05/23 06:18:58;;;;;;;2.52;1.27;;;;;;;;;;1695441;83;21168;-56
2021/05/23 06:21:24;;;;;;;1.77;1.15;;;;;;;;;;1693505;82;21019;-70
2021/05/23 06:23:51;;;;;;;1.37;1.20;;;;;;;;;;1695354;83;21853;-66
2021/05/23 06:26:17;;;;;;;3.17;1.45;;;;;;;;;;1694845;83;21118;-60
2021/05/23 06:28:44;;;;;;;2.47;1.50;;;;;;;;;;1694412;83;21036;-61
2021/05/23 06:31:10;;;;;;;1.65;1.30;;;;;;;;;;1692164;82;20985;-61
2021/05/23 06:33:36;;;;;;;1.98;1.50;;;;;;;;;;1704861;82;21086;-62
2021/05/23 06:36:03;;;;;;;2.92;1.72;;;;;;;;;;1686276;82;21097;-61
2021/05/23 06:38:29;;;;;;;2.58;1.70;;;;;;;;;;1691821;82;20949;-61
2021/05/23 06:40:56;;;;;;;1.87;1.20;;;;;;;;;;1631314;84;21020;-67
2021/05/23 06:43:22;;;;;;;2.95;1.55;;;;;;;;;;1628439;86;21082;-68
2021/05/23 06:45:54;;;;;;;1.32;1.20;;;;;;;;;;1631262;86;20967;-69
2021/05/23 06:48:29;;;;;;;5.10;1.52;;;;;;;;;;1687136;85;20902;-64
2021/05/23 06:50:56;;;;;;;1.47;1.20;;;;;;;;;;1675364;85;21797;-67
2021/05/23 06:53:22;;;;;;;1.42;1.20;;;;;;;;;;1685293;82;20940;-63
2021/05/23 06:55:48;;;;;;;1.62;1.00;;;;;;;;;;1671856;82;21769;-67
2021/05/23 06:58:15;;;;;;;1.42;1.00;;;;;;;;;;1694393;82;21020;-71
2021/05/23 07:00:41;;;;;;;3.70;1.45;;;;;;;;;;1689591;83;20980;-64
2021/05/23 07:03:07;;;;;;;1.90;1.02;;;;;;;;;;1690035;83;21657;-66
2021/05/23 07:05:33;;;;;;;1.65;1.00;;;;;;;;;;1688505;83;20980;-65
2021/05/23 07:08:00;;;;;;;1.80;1.10;;;;;;;;;;1693167;83;21155;-61
2021/05/23 07:10:26;;;;;;;1.72;1.10;;;;;;;;;;1689657;82;20948;-59
2021/05/23 07:12:52;;;;;;;1.20;1.10;;;;;;;;;;1693056;83;20891;-61
2021/05/23 07:15:19;;;;;;;1.30;1.00;;;;;;;;;;1689130;82;21641;-58
2021/05/23 07:17:45;;;;;;;1.80;0.95;;;;;;;;;;1688873;82;21036;-57
2021/05/23 07:20:13;;;;;;;2.30;1.07;;;;;;;;;;1689392;82;21168;-58
2021/05/23 07:22:39;;;;;;;2.62;1.12;;;;;;;;;;1697288;82;21048;-60
2021/05/23 07:25:06;;;;;;;1.80;1.30;;;;;;;;;;1698245;84;20985;-61
2021/05/23 07:27:33;;;;;;;1.95;1.47;;;;;;;;;;1678368;85;21030;-62
2021/05/23 07:29:59;;;;;;;3.27;1.30;;;;;;;;;;1674950;85;20915;-63
2021/05/23 07:32:25;;;;;;;1.27;1.00;;;;;;;;;;1656982;84;21071;-62
2021/05/23 07:34:51;;;;;;;1.05;0.90;;;;;;;;;;1627060;86;22691;-61
2021/05/23 07:37:17;;;;;;;1.50;1.12;;;;;;;;;;1645550;85;20973;-60
2021/05/23 07:39:44;;;;;;;1.25;0.98;;;;;;;;;;1644055;85;21637;-63
2021/05/23 07:42:11;;;;;;;1.57;1.00;;;;;;;;;;1647684;85;21100;-59
2021/05/23 07:44:37;;;;;;;2.00;1.07;;;;;;;;;;1650332;85;21948;-60
2021/05/23 07:47:05;;;;;;;1.77;1.05;;;;;;;;;;1652930;85;21028;-61
2021/05/23 07:49:31;;;;;;;1.90;1.00;;;;;;;;;;1642478;86;20925;-62
2021/05/23 07:51:57;;;;;;;2.90;1.17;;;;;;;;;;1648150;86;21625;-62
2021/05/23 07:54:25;;;;;;;1.25;0.90;;;;;;;;;;1653770;86;21637;-62
2021/05/23 07:56:51;;;;;;;1.85;0.95;;;;;;;;;;1654038;85;21041;-63
2021/05/23 07:59:17;;;;;;;1.07;0.98;;;;;;;;;;1639135;85;20997;-64
2021/05/23 08:01:43;;;;;;;2.02;0.80;;;;;;;;;;1657459;85;21006;-61
2021/05/23 08:04:10;;;;;;;1.30;1.00;;;;;;;;;;1652039;85;37821;-61
2021/05/23 08:06:36;;;;;;;7.05;1.30;;;;;;;;;;1670197;84;21829;-68
2021/05/23 08:09:04;;;;;;;1.92;1.00;;;;;;;;;;1627115;86;21084;-67
2021/05/23 08:11:30;;;;;;;1.57;0.78;;;;;;;;;;1666059;83;21008;-64
2021/05/23 08:13:57;;;;;;;3.25;1.00;;;;;;;;;;1669884;83;21083;-53
2021/05/23 08:16:24;;;;;;;2.87;0.80;;;;;;;;;;1664041;83;20946;-59
2021/05/23 08:18:50;;;;;;;1.07;0.85;;;;;;;;;;1672631;83;21045;-58
2021/05/23 08:21:16;;;;;;;4.12;0.90;;;;;;;;;;1666285;83;21079;-59
2021/05/23 08:23:43;;;;;;;2.15;0.98;;;;;;;;;;1668237;83;21093;-59
2021/05/23 08:26:09;;;;;;;6.70;1.12;;;;;;;;;;1671952;84;21488;-58
2021/05/23 08:28:36;;;;;;;2.17;0.85;;;;;;;;;;1632806;86;21066;-58
2021/05/23 08:31:02;;;;;;;2.00;1.12;;;;;;;;;;1655832;83;20949;-59
2021/05/23 08:33:30;;;;;;;2.37;0.93;;;;;;;;;;1662831;83;21087;-61
2021/05/23 08:35:56;;;;;;;1.42;0.90;;;;;;;;;;1663955;83;20988;-59
2021/05/23 08:38:22;;;;;;;2.62;0.98;;;;;;;;;;1660465;83;21057;-59
2021/05/23 08:40:51;;;;;;;1.17;0.90;;;;;;;;;;1678793;82;21025;-56
2021/05/23 08:43:19;;;;;;;2.60;0.90;;;;;;;;;;1678715;82;20920;-55
2021/05/23 08:45:45;;;;;;;1.05;0.85;;;;;;;;;;1696444;82;21112;-57
2021/05/23 08:48:11;;;;;;;1.85;0.80;;;;;;;;;;1696167;82;20972;-57
2021/05/23 08:50:38;;;;;;;2.10;0.70;;;;;;;;;;1695773;82;21008;-57
2021/05/23 08:53:04;;;;;;;3.12;1.10;;;;;;;;;;1630305;86;21598;-58
2021/05/23 08:55:33;;;;;;;0.90;0.60;;;;;;;;;;1616937;86;21178;-63
2021/05/23 08:58:00;;;;;;;1.00;0.90;;;;;;;;;;1639670;85;21767;-49
2021/05/23 09:00:27;;;;;;;1.72;0.90;;;;;;;;;;1627048;85;20973;-49
2021/05/23 09:02:57;;;;;;;0.80;0.80;;;;;;;;;;1637130;85;21174;-55
2021/05/23 09:05:34;;;;;;;0.95;0.68;;;;;;;;;;1643562;85;20941;-56
2021/05/23 09:08:03;;;;;;;1.75;0.75;;;;;;;;;;1635079;85;20974;-54
2021/05/23 09:10:32;;;;;;;2.98;0.68;;;;;;;;;;1639337;85;21558;-54
2021/05/23 09:12:59;;;;;;;1.07;0.70;;;;;;;;;;1635743;85;21048;-62
2021/05/23 09:15:26;;;;;;;1.82;0.90;;;;;;;;;;1647675;85;21032;-64
2021/05/23 09:18:03;;;;;;;0.70;0.70;;;;;;;;;;1638331;85;20997;-58
2021/05/23 09:20:29;;;;;;;0.70;0.70;;;;;;;;;;1633927;85;20965;-56
2021/05/23 09:22:56;;;;;;;1.82;0.70;;;;;;;;;;1649861;85;21085;-54
2021/05/23 09:25:30;;;;;;;0.90;0.50;;;;;;;;;;1636992;85;21048;-54
2021/05/23 09:27:58;;;;;;;3.08;0.72;;;;;;;;;;1635776;84;21052;-57
2021/05/23 09:30:26;;;;;;;1.67;0.50;;;;;;;;;;1643804;85;20978;-59
2021/05/23 09:32:54;;;;;;;1.32;0.60;;;;;;;;;;1688968;83;20965;-60
2021/05/23 09:35:21;;;;;;;2.37;0.40;;;;;;;;;;1691655;83;21133;-59
2021/05/23 09:38:04;;;;;;;1.62;0.75;;;;;;;;;;1691475;84;21001;-60
2021/05/23 09:40:33;;;;;;;1.05;0.60;;;;;;;;;;1700565;84;21042;-60
2021/05/23 09:43:00;;;;;;;2.58;0.95;;;;;;;;;;1692889;84;21065;-60
2021/05/23 09:45:38;;;;;;;3.08;0.62;;;;;;;;;;1699660;83;21029;-64
2021/05/23 09:48:05;;;;;;;1.45;0.70;;;;;;;;;;1688110;83;21106;-63
2021/05/23 09:50:39;;;;;;;3.17;1.10;;;;;;;;;;1699428;84;20990;-60
2021/05/23 09:53:27;;;;;;;1.20;0.68;;;;;;;;;;1697152;84;21049;-61
2021/05/23 09:56:04;;;;;;;0.50;0.50;;;;;;;;;;1690079;84;21034;-63
2021/05/23 09:58:36;;;;;;;0.90;0.60;;;;;;;;;;1680063;82;21536;-59
2021/05/23 10:01:09;;;;;;;0.93;0.75;;;;;;;;;;1674956;82;21109;-58
2021/05/23 10:03:40;;;;;;;1.15;0.57;;;;;;;;;;1671909;82;20964;-59
2021/05/23 10:06:08;;;;;;;1.60;0.80;;;;;;;;;;1679680;82;20971;-59
2021/05/23 10:08:35;;;;;;;2.15;0.98;;;;;;;;;;1690005;84;21085;-59
2021/05/23 10:11:02;;;;;;;2.80;0.72;;;;;;;;;;1697823;82;20970;-62
2021/05/23 10:13:29;;;;;;;2.75;0.90;;;;;;;;;;1699521;84;21659;-58
2021/05/23 10:15:55;;;;;;;1.40;0.68;;;;;;;;;;1697027;84;21091;-58
2021/05/23 10:18:23;;;;;;;2.62;0.70;;;;;;;;;;1697197;84;20947;-60
2021/05/23 10:20:56;;;;;;;0.57;0.40;;;;;;;;;;1693968;84;20998;-60
2021/05/23 10:23:31;;;;;;;1.75;0.60;;;;;;;;;;1698155;84;21016;-60
2021/05/23 10:25:59;;;;;;;1.27;0.42;;;;;;;;;;1696934;82;21235;-60
2021/05/23 10:28:25;;;;;;;2.35;0.62;;;;;;;;;;1696992;84;21117;-61
2021/05/23 10:30:53;;;;;;;1.72;0.70;;;;;;;;;;1694870;84;20942;-56
2021/05/23 10:33:20;;;;;;;1.22;0.70;;;;;;;;;;1700718;82;21012;-59
2021/05/23 10:35:50;;;;;;;2.37;0.80;;;;;;;;;;1701068;82;21004;-56
2021/05/23 10:38:19;;;;;;;2.10;1.17;;;;;;;;;;1692235;82;21101;-56
2021/05/23 10:40:59;;;;;;;0.98;0.62;;;;;;;;;;1682143;83;21014;-57
2021/05/23 10:43:28;;;;;;;1.70;0.90;;;;;;;;;;1692725;82;21039;-56
2021/05/23 10:46:12;;;;;;;1.30;0.57;;;;;;;;;;1694392;82;21073;-55
2021/05/23 10:48:39;;;;;;;1.40;0.80;;;;;;;;;;1695260;82;21020;-55
2021/05/23 10:51:15;;;;;;;1.22;0.70;;;;;;;;;;1691790;82;21062;-57
2021/05/23 10:53:41;;;;;;;;;;;;;;;;;;1692031;82;20957;-55
2021/05/23 10:56:23;;;;;;;1.92;0.57;;;;;;;;;;1693439;82;25579;-58
2021/05/23 10:58:57;;;;;;;1.27;0.62;;;;;;;;;;1692062;82;21107;-55
2021/05/23 11:01:44;;;;;;;1.12;0.60;;;;;;;;;;1694637;82;21290;-60
2021/05/23 11:04:20;;;;;;;3.45;0.90;;;;;;;;;;1694524;82;21185;-58
2021/05/23 11:06:47;;;;;;;0.57;0.40;;;;;;;;;;1695311;82;21064;-56
2021/05/23 11:09:20;;;;;;;0.90;0.50;;;;;;;;;;1688736;82;21197;-58
2021/05/23 11:11:47;;;;;;;1.57;0.70;;;;;;;;;;1692757;82;21064;-54
2021/05/23 11:14:22;;;;;;;0.60;0.50;;;;;;;;;;1691010;82;20996;-56
2021/05/23 11:16:55;;;;;;;0.70;0.53;;;;;;;;;;1693991;82;21113;-56
2021/05/23 11:19:24;;;;;;;0.95;0.42;;;;;;;;;;1693525;82;21644;-57
2021/05/23 11:21:53;;;;;;;1.92;0.60;;;;;;;;;;1695196;82;20964;-54
2021/05/23 11:24:21;;;;;;;3.15;0.50;;;;;;;;;;1692112;82;21071;-60
2021/05/23 11:26:47;;;;;;;1.70;0.70;;;;;;;;;;1691814;82;21004;-57
2021/05/23 11:29:13;;;;;;;0.93;0.40;;;;;;;;;;1690337;82;21724;-58
2021/05/23 11:31:47;;;;;;;1.15;0.60;;;;;;;;;;1693474;82;21000;-56
2021/05/23 11:34:14;;;;;;;1.57;0.50;;;;;;;;;;1688374;83;21513;-56
2021/05/23 11:36:42;;;;;;;0.30;0.30;;;;;;;;;;1688953;83;21547;-56
2021/05/23 11:39:11;;;;;;;1.57;0.37;;;;;;;;;;1691192;83;20989;-62
2021/05/23 11:41:43;;;;;;;1.92;0.42;;;;;;;;;;1690301;84;21157;-62
2021/05/23 11:44:13;;;;;;;1.30;0.50;;;;;;;;;;1693006;83;20985;-60
2021/05/23 11:46:40;;;;;;;1.75;0.60;;;;;;;;;;1689216;83;20942;-62
2021/05/23 11:49:06;;;;;;;0.60;0.45;;;;;;;;;;1691210;84;21045;-63
2021/05/23 11:51:34;;;;;;;1.47;0.57;;;;;;;;;;1691831;83;20898;-61
2021/05/23 11:54:04;;;;;;;0.30;0.30;;;;;;;;;;1691280;84;21114;-62
2021/05/23 11:56:34;;;;;;;1.27;0.40;;;;;;;;;;1692681;84;21164;-62
2021/05/23 11:59:02;;;;;;;1.20;0.47;;;;;;;;;;1693015;83;20955;-61
2021/05/23 12:01:31;;;;;;;2.80;0.90;;;;;;;;;;1690579;84;21591;-60
2021/05/23 12:04:05;;;;;;;0.82;0.50;;;;;;;;;;1688619;83;21585;-61
2021/05/23 12:06:32;;;;;;;0.55;0.30;;;;;;;;;;1691436;83;21535;-63
2021/05/23 12:09:14;;;;;;;0.33;0.30;;;;;;;;;;1690438;83;21625;-62
2021/05/23 12:11:45;;;;;;;2.45;0.47;;;;;;;;;;1692374;83;20954;-61
2021/05/23 12:14:32;;;;;;;0.78;0.47;;;;;;;;;;1692474;84;21650;-63
2021/05/23 12:17:05;;;;;;;1.15;0.75;;;;;;;;;;1693410;83;20978;-59
2021/05/23 12:19:50;;;;;;;1.40;0.55;;;;;;;;;;1688296;83;21180;-56
2021/05/23 12:22:25;;;;;;;0.90;0.53;;;;;;;;;;1688485;83;21554;-57
2021/05/23 12:24:53;;;;;;;0.60;0.45;;;;;;;;;;1688847;84;28236;-58
2021/05/23 12:27:31;;;;;;;0.90;0.40;;;;;;;;;;1691921;84;20879;-57
2021/05/23 12:30:17;;;;;;;3.30;0.78;;;;;;;;;;1691142;84;21119;-57
2021/05/23 12:32:46;;;;;;;0.75;0.55;;;;;;;;;;1690252;84;21093;-57
2021/05/23 12:35:24;;;;;;;1.62;0.45;;;;;;;;;;1688007;84;21013;-57
2021/05/23 12:37:53;;;;;;;1.42;0.45;;;;;;;;;;1691732;82;21034;-58
2021/05/23 12:40:24;;;;;;;0.42;0.40;;;;;;;;;;1689359;82;21470;-56
2021/05/23 12:42:51;;;;;;;0.88;0.40;;;;;;;;;;1689838;82;20912;-57
2021/05/23 12:45:17;;;;;;;1.40;0.50;;;;;;;;;;1696737;82;21096;-58
2021/05/23 12:47:52;;;;;;;0.50;0.50;;;;;;;;;;1699139;82;21608;-56
2021/05/23 12:50:30;;;;;;;0.33;0.30;;;;;;;;;;1675547;82;21076;-58
2021/05/23 12:52:56;;;;;;;2.25;0.50;;;;;;;;;;1692405;84;21028;-58
2021/05/23 12:55:24;;;;;;;0.70;0.50;;;;;;;;;;1691342;83;20981;-59
2021/05/23 12:57:52;;;;;;;0.93;0.50;;;;;;;;;;1692815;84;20918;-60
2021/05/23 13:00:19;;;;;;;1.72;0.60;;;;;;;;;;1693699;83;20974;-59
2021/05/23 13:02:47;;;;;;;1.35;0.37;;;;;;;;;;1690745;84;21172;-59
2021/05/23 13:05:17;;;;;;;0.95;0.45;;;;;;;;;;1677264;82;20996;-59
2021/05/23 13:07:43;;;;;;;1.17;0.45;;;;;;;;;;1670410;82;21689;-59
2021/05/23 13:10:14;;;;;;;1.77;0.53;;;;;;;;;;1670548;82;21100;-56
2021/05/23 13:12:41;;;;;;;0.98;0.47;;;;;;;;;;1670478;82;21526;-48
2021/05/23 13:15:09;;;;;;;2.00;0.62;;;;;;;;;;1670515;82;21012;-51
2021/05/23 13:17:41;;;;;;;1.50;0.60;;;;;;;;;;1671107;82;21000;-49
2021/05/23 13:20:11;;;;;;;0.70;0.40;;;;;;;;;;1670666;82;20973;-50
2021/05/23 13:22:38;;;;;;;2.70;0.70;;;;;;;;;;1671345;82;21617;-51
2021/05/23 13:25:07;;;;;;;1.75;0.40;;;;;;;;;;1670549;82;20916;-49
2021/05/23 13:27:33;;;;;;;1.62;0.70;;;;;;;;;;1648665;84;20979;-49
2021/05/23 13:30:02;;;;;;;2.83;0.60;;;;;;;;;;1675555;82;21600;-50
2021/05/23 13:32:28;;;;;;;2.67;0.70;;;;;;;;;;1681521;82;21081;-50
2021/05/23 13:34:55;;;;;;;0.50;0.50;;;;;;;;;;1675778;82;21116;-49
2021/05/23 13:37:22;;;;;;;2.20;0.70;;;;;;;;;;1679767;82;21075;-51
2021/05/23 13:39:49;;;;;;;0.50;0.50;;;;;;;;;;1674519;82;21092;-51
2021/05/23 13:42:16;;;;;;;0.78;0.57;;;;;;;;;;1674452;82;21008;-51
2021/05/23 13:44:43;;;;;;;2.40;1.27;;;;;;;;;;1690413;83;21043;-51
2021/05/23 13:47:09;;;;;;;1.52;0.88;;;;;;;;;;1696149;82;21116;-50
2021/05/23 13:49:40;;;;;;;0.98;0.62;;;;;;;;;;1696263;82;21020;-49
2021/05/23 13:52:04;;;;;;;1.20;0.78;;;;;;;;;;1695661;82;21096;-61
2021/05/23 13:54:30;;;;;;;3.05;1.00;;;;;;;;;;1693840;82;20928;-50
2021/05/23 13:56:58;;;;;;;10.38;1.37;;;;;;;;;;1693979;82;21097;-56
2021/05/23 13:59:25;;;;;;;0.90;0.55;;;;;;;;;;1636756;86;21161;-56
2021/05/23 14:01:53;;;;;;;1.12;0.70;;;;;;;;;;1630799;86;20878;-58
2021/05/23 14:04:20;;;;;;;0.80;0.80;;;;;;;;;;1630692;86;20937;-61
2021/05/23 14:06:47;;;;;;;0.80;0.80;;;;;;;;;;1639521;85;21119;-60
2021/05/23 14:09:14;;;;;;;2.42;0.90;;;;;;;;;;1630682;86;20996;-58
2021/05/23 14:11:41;;;;;;;2.30;0.90;;;;;;;;;;1626421;86;21937;-59
2021/05/23 14:14:07;;;;;;;1.12;0.88;;;;;;;;;;1680300;85;21013;-57
2021/05/23 14:16:33;;;;;;;1.45;0.80;;;;;;;;;;1683538;85;20964;-57
2021/05/23 14:19:00;;;;;;;4.90;1.15;;;;;;;;;;1686178;85;20962;-59
2021/05/23 14:21:26;;;;;;;2.65;1.00;;;;;;;;;;1684739;84;21097;-59
2021/05/23 14:23:52;;;;;;;1.87;1.07;;;;;;;;;;1683893;85;21133;-60
2021/05/23 14:26:19;;;;;;;0.95;0.70;;;;;;;;;;1681200;85;21594;-59
2021/05/23 14:28:46;;;;;;;3.00;0.70;;;;;;;;;;1685366;85;21014;-59
2021/05/23 14:31:17;;;;;;;1.62;0.80;;;;;;;;;;1678324;84;21037;-59
2021/05/23 14:33:44;;;;;;;1.35;0.85;;;;;;;;;;1685559;85;20954;-58
2021/05/23 14:36:10;;;;;;;1.25;1.07;;;;;;;;;;1683312;84;21271;-58
2021/05/23 14:38:37;;;;;;;3.25;1.30;;;;;;;;;;1631535;86;21593;-59
2021/05/23 14:41:03;;;;;;;0.82;0.60;;;;;;;;;;1631855;86;20952;-59
2021/05/23 14:43:32;;;;;;;3.00;0.88;;;;;;;;;;1630231;86;21104;-58
2021/05/23 14:45:59;;;;;;;1.17;0.75;;;;;;;;;;1629771;86;21553;-60
2021/05/23 14:48:25;;;;;;;1.90;0.70;;;;;;;;;;1628063;86;21090;-61